createdAt,value
2023-03-02T00:00:11.490Z,28.55
2023-03-02T00:02:40.707Z,27.73
2023-03-02T00:05:11.145Z,25.25
2023-03-02T00:07:38.567Z,27.83
2023-03-02T00:10:05.912Z,26.38
2023-03-02T00:12:36.611Z,25.42
2023-03-02T00:15:04.092Z,24.45
2023-03-02T00:17:33.624Z,28.65
2023-03-02T00:20:11.346Z,27.92
2023-03-02T00:22:42.714Z,22.80
2023-03-02T00:25:13.623Z,23.75
2023-03-02T00:27:40.645Z,23.65
2023-03-02T00:30:07.967Z,23.50
2023-03-02T00:32:36.896Z,22.70
2023-03-02T00:35:04.004Z,23.08
2023-03-02T00:37:31.164Z,26.67
2023-03-02T00:39:59.108Z,20.83
2023-03-02T00:42:27.542Z,23.67
2023-03-02T00:44:54.495Z,26.33
2023-03-02T00:47:21.809Z,24.05
2023-03-02T00:49:49.381Z,27.65
2023-03-02T00:52:17.133Z,21.05
2023-03-02T00:54:44.176Z,24.83
2023-03-02T00:59:57.503Z,26.27
2023-03-02T01:02:26.258Z,22.52
2023-03-02T01:04:53.437Z,27.60
2023-03-02T01:07:21.141Z,28.92
2023-03-02T01:09:48.604Z,25.52
2023-03-02T01:12:21.750Z,17.98
2023-03-02T01:14:51.343Z,26.98
2023-03-02T01:17:18.368Z,27.77
2023-03-02T01:19:45.452Z,24.30
2023-03-02T01:22:15.396Z,23.13
2023-03-02T01:24:42.479Z,23.80
2023-03-02T01:32:17.867Z,25.58
2023-03-02T01:34:44.979Z,22.40
2023-03-02T01:37:11.975Z,29.20
2023-03-02T01:39:39.513Z,25.85
2023-03-02T01:42:07.029Z,24.80
2023-03-02T01:44:39.408Z,20.38
2023-03-02T01:47:15.253Z,24.95
2023-03-02T01:49:44.668Z,27.08
2023-03-02T01:52:12.098Z,22.77
2023-03-02T01:54:40.106Z,20.75
2023-03-02T02:05:25.022Z,24.50
2023-03-02T02:07:53.189Z,25.48
2023-03-02T02:10:20.417Z,19.33
2023-03-02T02:12:47.394Z,26.65
2023-03-02T02:15:14.418Z,26.88
2023-03-02T02:17:41.679Z,23.95
2023-03-02T02:20:19.780Z,18.48
2023-03-02T02:22:46.924Z,27.00
2023-03-02T02:25:23.961Z,26.40
2023-03-02T02:27:51.166Z,25.00
2023-03-02T02:30:18.861Z,26.88
2023-03-02T02:35:31.941Z,23.33
2023-03-02T02:38:03.041Z,30.42
2023-03-02T02:40:40.971Z,26.80
2023-03-02T02:43:08.309Z,25.35
2023-03-02T02:45:36.534Z,22.23
2023-03-02T02:48:03.471Z,28.13
2023-03-02T02:50:32.325Z,24.95
2023-03-02T02:53:20.087Z,23.33
2023-03-02T02:55:49.041Z,24.85
2023-03-02T02:58:22.208Z,25.95
2023-03-02T03:00:49.469Z,26.50
2023-03-02T03:03:28.982Z,22.45
2023-03-02T03:05:56.405Z,23.42
2023-03-02T03:08:43.677Z,21.40
2023-03-02T03:11:11.733Z,23.35
2023-03-02T03:13:39.774Z,30.27
2023-03-02T03:16:07.255Z,25.65
2023-03-02T03:18:34.240Z,27.48
2023-03-02T03:21:01.404Z,23.70
2023-03-02T03:23:28.832Z,24.45
2023-03-02T03:25:55.915Z,30.40
2023-03-02T03:28:22.892Z,27.45
2023-03-02T03:30:49.982Z,27.98
2023-03-02T03:33:17.019Z,20.23
2023-03-02T03:35:47.553Z,24.80
2023-03-02T03:38:14.567Z,20.10
2023-03-02T03:40:41.582Z,23.70
2023-03-02T03:43:08.575Z,24.13
2023-03-02T03:45:35.966Z,22.52
2023-03-02T03:48:07.896Z,20.52
2023-03-02T03:53:12.123Z,26.63
2023-03-02T03:55:39.191Z,22.90
2023-03-02T03:58:06.256Z,22.15
2023-03-02T04:00:33.437Z,22.75
2023-03-02T04:03:00.502Z,24.02
2023-03-02T04:08:11.034Z,22.67
2023-03-02T04:10:38.156Z,19.80
2023-03-02T04:13:05.727Z,26.92
2023-03-02T04:15:32.838Z,22.20
2023-03-02T04:18:00.206Z,24.90
2023-03-02T04:23:14.105Z,20.40
2023-03-02T04:25:41.136Z,20.63
2023-03-02T04:28:08.192Z,24.33
2023-03-02T04:30:35.191Z,23.33
2023-03-02T04:33:02.228Z,21.00
2023-03-02T04:35:29.397Z,26.45
2023-03-02T04:37:56.516Z,22.40
2023-03-02T04:40:23.522Z,22.98
2023-03-02T04:42:50.569Z,27.33
2023-03-02T04:45:17.596Z,21.17
2023-03-02T04:47:44.740Z,24.13
2023-03-02T04:50:15.714Z,21.15
2023-03-02T04:52:42.900Z,24.58
2023-03-02T04:55:10.189Z,33.15
2023-03-02T04:57:37.331Z,29.60
2023-03-02T05:00:05.096Z,25.73
2023-03-02T05:02:32.216Z,32.22
2023-03-02T05:04:59.312Z,26.92
2023-03-02T05:07:26.357Z,21.00
2023-03-02T05:09:53.367Z,29.10
2023-03-02T05:12:21.609Z,21.58
2023-03-02T05:14:48.586Z,24.15
2023-03-02T05:17:15.776Z,24.80
2023-03-02T05:19:42.761Z,22.73
2023-03-02T05:22:09.825Z,24.75
2023-03-02T05:24:37.294Z,22.50
2023-03-02T05:27:04.853Z,22.95
2023-03-02T05:29:31.828Z,21.55
2023-03-02T05:31:58.883Z,24.80
2023-03-02T05:34:25.930Z,26.52
2023-03-02T05:36:52.982Z,28.48
2023-03-02T05:39:20.069Z,22.63
2023-03-02T05:41:47.106Z,26.73
2023-03-02T05:44:15.511Z,22.83
2023-03-02T05:46:42.503Z,25.95
2023-03-02T05:49:10.525Z,25.23
2023-03-02T05:51:37.591Z,26.70
2023-03-02T05:54:04.588Z,29.55
2023-03-02T05:56:32.003Z,27.08
2023-03-02T05:58:59.214Z,32.70
2023-03-02T06:01:26.391Z,28.23
2023-03-02T06:03:53.363Z,26.77
2023-03-02T06:06:20.501Z,31.38
2023-03-02T06:08:47.515Z,28.38
2023-03-02T06:11:14.584Z,27.85
2023-03-02T06:13:41.663Z,26.20
2023-03-02T06:16:09.059Z,25.38
2023-03-02T06:18:36.674Z,26.42
2023-03-02T06:21:03.818Z,21.58
2023-03-02T06:23:30.968Z,23.42
2023-03-02T06:25:59.032Z,30.92
2023-03-02T06:28:26.706Z,22.95
2023-03-02T06:30:53.837Z,25.85
2023-03-02T06:33:21.267Z,24.52
2023-03-02T06:35:49.054Z,22.83
2023-03-02T06:38:16.498Z,26.60
2023-03-02T06:40:43.857Z,24.35
2023-03-02T06:43:10.916Z,28.65
2023-03-02T06:45:38.100Z,25.25
2023-03-02T06:48:05.515Z,25.40
2023-03-02T06:50:32.677Z,25.65
2023-03-02T06:53:01.106Z,25.88
2023-03-02T06:55:28.206Z,33.40
2023-03-02T06:57:55.345Z,22.60
2023-03-02T07:00:27.927Z,25.52
2023-03-02T07:02:56.392Z,32.28
2023-03-02T07:05:24.352Z,27.70
2023-03-02T07:07:51.581Z,25.40
2023-03-02T07:10:18.645Z,31.58
2023-03-02T07:12:45.740Z,25.48
2023-03-02T07:15:14.105Z,30.05
2023-03-02T07:17:41.930Z,25.88
2023-03-02T07:20:09.447Z,28.40
2023-03-02T07:22:36.546Z,30.92
2023-03-02T07:25:03.873Z,22.35
2023-03-02T07:27:30.997Z,28.70
2023-03-02T07:29:58.148Z,24.00
2023-03-02T07:32:25.203Z,26.27
2023-03-02T07:34:52.367Z,32.83
2023-03-02T07:37:19.345Z,23.92
2023-03-02T07:39:47.743Z,27.27
2023-03-02T07:42:14.770Z,22.73
2023-03-02T07:44:42.240Z,34.00
2023-03-02T07:47:09.319Z,31.67
2023-03-02T07:49:36.502Z,27.45
2023-03-02T07:52:04.297Z,31.83
2023-03-02T07:54:31.454Z,31.17
2023-03-02T07:56:58.736Z,24.75
2023-03-02T07:59:33.252Z,22.80
2023-03-02T08:02:00.359Z,27.92
2023-03-02T08:04:27.650Z,28.85
2023-03-02T08:06:54.661Z,26.33
2023-03-02T08:09:21.674Z,27.42
2023-03-02T08:11:48.763Z,33.80
2023-03-02T08:14:15.819Z,22.80
2023-03-02T08:16:44.056Z,32.25
2023-03-02T08:19:11.071Z,24.55
2023-03-02T08:21:38.095Z,30.67
2023-03-02T08:24:05.176Z,24.33
2023-03-02T08:26:32.298Z,23.90
2023-03-02T08:28:59.485Z,28.80
2023-03-02T08:31:27.084Z,26.85
2023-03-02T08:33:54.188Z,28.55
2023-03-02T08:36:21.812Z,23.83
2023-03-02T08:38:49.633Z,25.35
2023-03-02T08:41:18.273Z,23.42
2023-03-02T08:43:45.299Z,20.58
2023-03-02T08:46:13.432Z,18.35
2023-03-02T08:48:40.642Z,24.80
2023-03-02T08:51:09.178Z,24.90
2023-03-02T08:53:37.975Z,24.88
2023-03-02T08:56:07.440Z,26.02
2023-03-02T08:58:34.539Z,22.75
2023-03-02T09:01:01.626Z,20.27
2023-03-02T09:03:28.651Z,22.40
2023-03-02T09:05:55.752Z,24.17
2023-03-02T09:08:22.866Z,21.02
2023-03-02T09:10:49.927Z,24.88
2023-03-02T09:13:17.089Z,21.45
2023-03-02T09:15:44.193Z,21.42
2023-03-02T09:18:11.261Z,19.83
2023-03-02T09:20:38.293Z,23.60
2023-03-02T09:23:05.346Z,23.48
2023-03-02T09:25:40.233Z,20.50
2023-03-02T09:28:07.291Z,19.42
2023-03-02T09:30:34.366Z,20.98
2023-03-02T09:33:01.461Z,22.10
2023-03-02T09:35:29.108Z,20.83
2023-03-02T09:37:56.150Z,20.05
2023-03-02T09:43:04.619Z,24.30
2023-03-02T09:45:52.879Z,21.90
2023-03-02T09:48:38.787Z,20.73
2023-03-02T09:51:13.270Z,20.67
2023-03-02T09:53:46.153Z,20.52
2023-03-02T09:56:18.502Z,22.25
2023-03-02T09:58:50.669Z,19.92
2023-03-02T10:06:25.546Z,22.70
2023-03-02T10:08:52.804Z,19.08
2023-03-02T10:11:23.459Z,19.08
2023-03-02T10:13:54.317Z,19.48
2023-03-02T10:19:05.310Z,23.20
2023-03-02T10:21:52.360Z,21.67
2023-03-02T10:24:37.871Z,23.02
2023-03-02T10:27:13.785Z,18.13
2023-03-02T10:29:50.730Z,22.00
2023-03-02T10:32:24.772Z,21.23
2023-03-02T10:34:53.052Z,20.50
2023-03-02T10:37:23.161Z,22.92
2023-03-02T10:39:50.447Z,22.88
2023-03-02T10:42:30.453Z,21.25
2023-03-02T10:45:00.092Z,17.05
2023-03-02T10:47:28.248Z,23.90
2023-03-02T10:49:56.328Z,23.70
2023-03-02T10:52:27.753Z,19.75
2023-03-02T11:01:17.096Z,20.08
2023-03-02T11:03:54.602Z,20.58
2023-03-02T11:06:25.235Z,21.10
2023-03-02T11:08:59.877Z,20.48
2023-03-02T11:11:27.267Z,23.15
2023-03-02T11:13:56.326Z,19.08
2023-03-02T11:16:25.381Z,20.58
2023-03-02T11:27:31.530Z,23.08
2023-03-02T11:30:01.490Z,21.23
2023-03-02T11:32:40.672Z,23.10
2023-03-02T11:35:17.048Z,19.02
2023-03-02T11:37:54.759Z,24.80
2023-03-02T11:40:33.885Z,19.52
2023-03-02T11:43:04.678Z,17.58
2023-03-02T11:45:33.111Z,17.92
2023-03-02T11:48:05.243Z,17.08
2023-03-02T11:50:38.078Z,21.02
2023-03-02T11:53:07.745Z,21.90
2023-03-02T11:55:40.008Z,19.88
2023-03-02T11:58:07.813Z,19.90
2023-03-02T12:00:39.553Z,20.30
2023-03-02T12:03:08.194Z,15.82
2023-03-02T12:05:36.584Z,16.77
2023-03-02T12:08:06.068Z,20.13
2023-03-02T12:10:36.019Z,20.50
2023-03-02T12:13:07.828Z,18.58
2023-03-02T12:15:37.461Z,19.05
2023-03-02T12:18:16.522Z,17.67
2023-03-02T12:20:46.098Z,21.08
2023-03-02T12:23:24.378Z,15.23
2023-03-02T12:26:02.297Z,19.00
2023-03-02T12:28:40.228Z,19.52
2023-03-02T12:31:14.166Z,17.08
2023-03-02T12:33:47.209Z,20.42
2023-03-02T12:36:19.502Z,19.58
2023-03-02T12:39:15.188Z,17.55
2023-03-02T12:42:12.797Z,15.25
2023-03-02T12:44:44.202Z,17.42
2023-03-02T12:47:24.477Z,17.05
2023-03-02T12:49:54.505Z,16.65
2023-03-02T12:52:31.277Z,21.27
2023-03-02T12:55:03.516Z,19.38
2023-03-02T12:57:34.264Z,18.33
2023-03-02T13:00:03.443Z,13.52
2023-03-02T13:02:37.125Z,18.65
2023-03-02T13:05:10.446Z,18.08
2023-03-02T13:07:48.321Z,18.27
2023-03-02T13:10:36.056Z,17.23
2023-03-02T13:13:05.062Z,18.15
2023-03-02T13:15:33.236Z,18.50
2023-03-02T13:18:01.144Z,18.50
2023-03-02T13:22:59.850Z,22.35
2023-03-02T13:25:36.149Z,17.85
2023-03-02T13:28:13.539Z,14.43
2023-03-02T13:30:49.739Z,13.77
2023-03-02T13:36:52.925Z,16.65
2023-03-02T13:45:41.028Z,16.13
2023-03-02T13:48:15.387Z,20.00
2023-03-02T13:50:51.287Z,15.75
2023-03-02T13:53:18.307Z,17.92
2023-03-02T13:55:45.478Z,15.75
2023-03-02T13:58:14.876Z,20.05
2023-03-02T14:00:42.050Z,17.95
2023-03-02T14:03:32.100Z,14.75
2023-03-02T14:05:59.904Z,15.13
2023-03-02T14:08:27.041Z,16.67
2023-03-02T14:10:57.336Z,16.95
2023-03-02T14:15:52.385Z,17.20
2023-03-02T14:18:39.310Z,19.38
2023-03-02T14:21:07.184Z,21.13
2023-03-02T14:23:34.352Z,20.30
2023-03-02T14:26:01.422Z,21.58
2023-03-02T14:28:35.521Z,15.95
2023-03-02T14:31:02.605Z,18.45
2023-03-02T14:33:29.650Z,20.05
2023-03-02T14:35:58.169Z,16.27
2023-03-02T14:38:27.116Z,21.55
2023-03-02T14:40:54.424Z,15.57
2023-03-02T14:43:23.265Z,21.08
2023-03-02T14:45:50.707Z,19.40
2023-03-02T14:48:26.122Z,15.27
2023-03-02T14:50:53.140Z,15.27
2023-03-02T14:53:21.460Z,16.65
2023-03-02T14:55:50.614Z,19.27
2023-03-02T14:58:20.650Z,12.43
2023-03-02T15:00:53.010Z,14.43
2023-03-02T15:03:31.732Z,19.55
2023-03-02T15:06:01.755Z,19.63
2023-03-02T15:08:29.979Z,18.75
2023-03-02T15:11:02.388Z,17.33
2023-03-02T15:13:38.752Z,12.68
2023-03-02T15:16:12.612Z,15.73
2023-03-02T15:18:43.453Z,13.45
2023-03-02T15:26:11.722Z,14.73
2023-03-02T15:28:39.167Z,18.15
2023-03-02T15:31:10.891Z,13.90
2023-03-02T15:33:41.569Z,12.80
2023-03-02T15:41:38.316Z,13.20
2023-03-02T15:44:06.085Z,15.73
2023-03-02T15:46:36.651Z,17.38
2023-03-02T15:49:07.608Z,13.13
2023-03-02T15:51:35.315Z,12.80
2023-03-02T15:54:09.368Z,11.18
2023-03-02T15:56:44.140Z,12.32
2023-03-02T15:59:12.595Z,15.35
2023-03-02T16:01:42.742Z,16.17
2023-03-02T16:04:10.658Z,14.35
2023-03-02T16:06:38.397Z,9.77
2023-03-02T16:09:07.780Z,12.07
2023-03-02T16:11:35.513Z,11.47
2023-03-02T16:14:08.082Z,13.77
2023-03-02T16:16:37.754Z,12.38
2023-03-02T16:19:05.154Z,17.42
2023-03-02T16:21:32.554Z,14.75
2023-03-02T16:24:04.087Z,14.35
2023-03-02T16:26:32.620Z,13.48
2023-03-02T16:29:00.483Z,12.50
2023-03-02T16:31:33.458Z,15.82
2023-03-02T16:34:07.912Z,13.82
2023-03-02T16:36:36.312Z,13.35
2023-03-02T16:39:04.947Z,10.80
2023-03-02T16:41:34.939Z,12.82
2023-03-02T16:44:05.524Z,12.40
2023-03-02T16:46:36.436Z,11.32
2023-03-02T16:49:07.511Z,13.20
2023-03-02T16:51:34.571Z,15.00
2023-03-02T16:54:01.623Z,15.75
2023-03-02T16:56:28.755Z,11.43
2023-03-02T16:58:56.010Z,10.40
2023-03-02T17:01:23.827Z,13.45
2023-03-02T17:03:51.100Z,14.98
2023-03-02T17:06:23.466Z,15.63
2023-03-02T17:08:51.212Z,12.77
2023-03-02T17:11:18.832Z,14.25
2023-03-02T17:13:46.071Z,12.05
2023-03-02T17:16:13.414Z,15.38
2023-03-02T17:18:40.917Z,13.60
2023-03-02T17:21:08.288Z,10.43
2023-03-02T17:23:58.609Z,10.55
2023-03-02T17:26:25.687Z,10.85
2023-03-02T17:28:52.744Z,13.98
2023-03-02T17:31:19.848Z,8.57
2023-03-02T17:33:46.882Z,12.35
2023-03-02T17:36:15.252Z,10.07
2023-03-02T17:38:48.561Z,9.75
2023-03-02T17:41:18.031Z,10.63
2023-03-02T17:43:45.132Z,10.82
2023-03-02T17:46:20.472Z,10.15
2023-03-02T17:48:49.072Z,9.48
2023-03-02T17:51:16.403Z,13.10
2023-03-02T17:53:43.903Z,12.43
2023-03-02T17:56:11.204Z,18.25
2023-03-02T17:58:45.055Z,13.02
2023-03-02T18:01:13.140Z,14.60
2023-03-02T18:03:40.341Z,11.77
2023-03-02T18:06:10.436Z,16.35
2023-03-02T18:08:37.838Z,14.77
2023-03-02T18:11:05.599Z,14.95
2023-03-02T18:13:33.037Z,20.88
2023-03-02T18:16:00.401Z,15.13
2023-03-02T18:18:27.691Z,15.77
2023-03-02T18:20:55.981Z,14.43
2023-03-02T18:23:23.251Z,11.10
2023-03-02T18:25:50.493Z,12.15
2023-03-02T18:28:18.699Z,18.75
2023-03-02T18:30:45.899Z,12.55
2023-03-02T18:33:13.587Z,12.77
2023-03-02T18:35:40.940Z,11.68
2023-03-02T18:38:08.251Z,12.95
2023-03-02T18:40:35.487Z,13.52
2023-03-02T18:43:02.796Z,12.68
2023-03-02T18:45:33.201Z,8.82
2023-03-02T18:48:02.925Z,23.75
2023-03-02T18:50:33.431Z,10.80
2023-03-02T18:53:03.676Z,14.95
2023-03-02T18:55:30.966Z,17.48
2023-03-02T18:58:07.798Z,18.27
2023-03-02T19:00:37.716Z,14.82
2023-03-02T19:03:07.218Z,16.98
2023-03-02T19:05:34.512Z,18.55
2023-03-02T19:08:02.692Z,14.48
2023-03-02T19:10:30.015Z,18.42
2023-03-02T19:12:57.005Z,12.60
2023-03-02T19:15:24.892Z,15.18
2023-03-02T19:17:52.885Z,13.48
2023-03-02T19:20:20.950Z,12.27
2023-03-02T19:22:54.647Z,14.55
2023-03-02T19:25:24.737Z,14.98
2023-03-02T19:27:52.198Z,14.07
2023-03-02T19:30:24.089Z,14.23
2023-03-02T19:32:54.265Z,17.30
2023-03-02T19:35:22.717Z,14.38
2023-03-02T19:37:52.665Z,14.82
2023-03-02T19:40:24.414Z,15.70
2023-03-02T19:42:52.050Z,24.17
2023-03-02T19:45:21.094Z,14.15
2023-03-02T19:47:51.042Z,11.93
2023-03-02T19:50:19.431Z,15.38
2023-03-02T19:52:48.903Z,15.38
2023-03-02T19:55:16.585Z,14.68
2023-03-02T19:57:44.017Z,15.68
2023-03-02T20:00:15.612Z,16.55
2023-03-02T20:02:49.078Z,13.95
2023-03-02T20:05:20.310Z,16.08
2023-03-02T20:07:47.743Z,17.13
2023-03-02T20:10:25.045Z,18.10
2023-03-02T20:12:52.263Z,17.13
2023-03-02T20:15:23.908Z,16.02
2023-03-02T20:17:51.181Z,17.35
2023-03-02T20:20:21.588Z,13.23
2023-03-02T20:22:49.839Z,14.40
2023-03-02T20:25:20.308Z,17.67
2023-03-02T20:27:52.004Z,19.52
2023-03-02T20:30:27.638Z,16.38
2023-03-02T20:32:56.479Z,15.50
2023-03-02T20:35:24.154Z,15.43
2023-03-02T20:37:51.585Z,14.93
2023-03-02T20:40:21.569Z,21.52
2023-03-02T20:42:51.761Z,14.38
2023-03-02T20:45:19.109Z,17.85
2023-03-02T20:47:58.577Z,20.17
2023-03-02T20:50:30.375Z,15.27
2023-03-02T20:53:05.636Z,12.30
2023-03-02T20:55:32.723Z,13.95
2023-03-02T20:58:01.084Z,17.35
2023-03-02T21:00:30.018Z,17.85
2023-03-02T21:03:00.498Z,19.63
2023-03-02T21:05:29.259Z,19.98
2023-03-02T21:07:59.294Z,15.43
2023-03-02T21:10:28.913Z,17.83
2023-03-02T21:12:59.069Z,17.60
2023-03-02T21:15:27.520Z,21.25
2023-03-02T21:17:57.267Z,17.98
2023-03-02T21:20:27.199Z,14.93
2023-03-02T21:22:54.579Z,22.55
2023-03-02T21:25:22.219Z,22.90
2023-03-02T21:27:52.172Z,18.35
2023-03-02T21:30:24.114Z,20.42
2023-03-02T21:32:51.717Z,18.30
2023-03-02T21:35:23.615Z,20.30
2023-03-02T21:37:53.844Z,17.77
2023-03-02T21:40:23.534Z,20.95
2023-03-02T21:42:50.773Z,19.80
2023-03-02T21:45:21.323Z,20.02
2023-03-02T21:47:48.596Z,22.92
2023-03-02T21:50:17.303Z,23.65
2023-03-02T21:52:44.545Z,22.20
2023-03-02T21:55:13.724Z,24.35
2023-03-02T21:57:41.564Z,22.80
2023-03-02T22:00:18.777Z,24.05
2023-03-02T22:02:53.642Z,19.45
2023-03-02T22:05:20.922Z,22.90
2023-03-02T22:07:48.604Z,24.50
2023-03-02T22:10:27.043Z,30.02
2023-03-02T22:12:56.172Z,24.85
2023-03-02T22:15:24.246Z,30.13
2023-03-02T22:17:51.531Z,24.92
2023-03-02T22:20:26.438Z,24.95
2023-03-02T22:22:57.261Z,29.13
2023-03-02T22:25:24.528Z,24.00
2023-03-02T22:28:01.749Z,24.27
2023-03-02T22:30:29.064Z,26.88
2023-03-02T22:32:56.828Z,25.55
2023-03-02T22:38:16.279Z,29.17
2023-03-02T22:40:45.997Z,26.23
2023-03-02T22:43:30.332Z,26.95
2023-03-02T22:46:15.508Z,27.48
2023-03-02T22:48:50.150Z,24.20
2023-03-02T22:51:21.374Z,27.60
2023-03-02T22:54:04.362Z,30.52
2023-03-02T23:05:57.674Z,27.50
2023-03-02T23:14:34.714Z,28.60
2023-03-02T23:20:15.303Z,22.73
2023-03-02T23:22:46.946Z,27.08
2023-03-02T23:25:15.760Z,23.92
2023-03-02T23:27:46.040Z,29.67
2023-03-02T23:30:17.870Z,26.92
2023-03-02T23:32:45.165Z,23.85
2023-03-02T23:35:12.458Z,26.08
2023-03-02T23:37:42.160Z,30.05
2023-03-02T23:40:09.776Z,23.30
2023-03-02T23:42:36.817Z,24.15
2023-03-02T23:45:03.921Z,30.67
2023-03-02T23:47:31.437Z,23.30
2023-03-02T23:49:58.744Z,27.65
2023-03-02T23:52:29.113Z,25.58
2023-03-02T23:54:56.335Z,34.10
2023-03-02T23:57:27.441Z,25.70
2023-03-02T23:59:54.670Z,25.33
